sensor_id;sensor_type;location;lat;lon;timestamp;temperature;humidity
26952;DHT22;14507;52.418;13.398;2023-04-03T00:01:13;2.20;99.90
26952;DHT22;14507;52.418;13.398;2023-04-03T00:03:39;2.20;99.90
26952;DHT22;14507;52.418;13.398;2023-04-03T00:06:07;2.10;99.90
26952;DHT22;14507;52.418;13.398;2023-04-03T00:08:34;2.10;99.90
26952;DHT22;14507;52.418;13.398;2023-04-03T00:11:00;2.10;99.90
26952;DHT22;14507;52.418;13.398;2023-04-03T00:13:26;2.10;99.90
26952;DHT22;14507;52.418;13.398;2023-04-03T00:15:52;2.10;99.90
26952;DHT22;14507;52.418;13.398;2023-04-03T00:18:18;2.20;99.90
26952;DHT22;14507;52.418;13.398;2023-04-03T00:20:44;2.10;99.90
26952;DHT22;14507;52.418;13.398;2023-04-03T00:23:09;2.10;99.90
26952;DHT22;14507;52.418;13.398;2023-04-03T00:25:36;2.00;99.90
26952;DHT22;14507;52.418;13.398;2023-04-03T00:28:02;2.00;99.90
26952;DHT22;14507;52.418;13.398;2023-04-03T00:30:27;2.00;99.90
26952;DHT22;14507;52.418;13.398;2023-04-03T00:32:53;2.00;99.90
26952;DHT22;14507;52.418;13.398;2023-04-03T00:35:20;2.00;99.90
26952;DHT22;14507;52.418;13.398;2023-04-03T00:37:46;2.00;99.90
26952;DHT22;14507;52.418;13.398;2023-04-03T00:40:13;2.00;99.90
26952;DHT22;14507;52.418;13.398;2023-04-03T00:42:41;2.00;99.90
26952;DHT22;14507;52.418;13.398;2023-04-03T00:47:36;1.90;99.90
26952;DHT22;14507;52.418;13.398;2023-04-03T00:50:03;1.90;99.90
26952;DHT22;14507;52.418;13.398;2023-04-03T00:52:29;1.90;99.90
26952;DHT22;14507;52.418;13.398;2023-04-03T00:54:59;1.90;99.90
26952;DHT22;14507;52.418;13.398;2023-04-03T00:57:28;1.90;99.90
26952;DHT22;14507;52.418;13.398;2023-04-03T01:00:00;1.90;99.90
26952;DHT22;14507;52.418;13.398;2023-04-03T01:02:27;1.90;99.90
26952;DHT22;14507;52.418;13.398;2023-04-03T01:04:53;1.90;99.90
26952;DHT22;14507;52.418;13.398;2023-04-03T01:07:23;1.90;99.90
26952;DHT22;14507;52.418;13.398;2023-04-03T01:09:53;1.80;99.90
26952;DHT22;14507;52.418;13.398;2023-04-03T01:12:23;1.80;99.90
26952;DHT22;14507;52.418;13.398;2023-04-03T01:14:51;1.80;99.90
26952;DHT22;14507;52.418;13.398;2023-04-03T01:17:47;1.80;99.90
26952;DHT22;14507;52.418;13.398;2023-04-03T01:20:35;1.90;99.90
26952;DHT22;14507;52.418;13.398;2023-04-03T01:23:43;1.90;99.90
26952;DHT22;14507;52.418;13.398;2023-04-03T01:26:12;1.80;99.90
26952;DHT22;14507;52.418;13.398;2023-04-03T01:28:38;1.80;99.90
26952;DHT22;14507;52.418;13.398;2023-04-03T01:32:20;1.90;99.90
26952;DHT22;14507;52.418;13.398;2023-04-03T01:34:15;1.80;99.90
26952;DHT22;14507;52.418;13.398;2023-04-03T01:36:40;1.70;99.90
26952;DHT22;14507;52.418;13.398;2023-04-03T01:39:06;1.80;99.90
26952;DHT22;14507;52.418;13.398;2023-04-03T01:41:32;1.80;99.90
26952;DHT22;14507;52.418;13.398;2023-04-03T01:43:58;1.70;99.90
26952;DHT22;14507;52.418;13.398;2023-04-03T01:46:23;1.70;99.90
26952;DHT22;14507;52.418;13.398;2023-04-03T01:48:49;1.70;99.90
26952;DHT22;14507;52.418;13.398;2023-04-03T01:51:15;1.90;99.90
26952;DHT22;14507;52.418;13.398;2023-04-03T01:53:40;1.70;99.90
26952;DHT22;14507;52.418;13.398;2023-04-03T01:56:06;1.70;99.90
26952;DHT22;14507;52.418;13.398;2023-04-03T01:58:33;1.80;99.90
26952;DHT22;14507;52.418;13.398;2023-04-03T02:00:59;1.80;99.90
26952;DHT22;14507;52.418;13.398;2023-04-03T02:03:25;1.80;99.90
26952;DHT22;14507;52.418;13.398;2023-04-03T02:05:51;1.80;99.90
26952;DHT22;14507;52.418;13.398;2023-04-03T02:08:17;1.80;99.90
26952;DHT22;14507;52.418;13.398;2023-04-03T02:10:44;1.70;99.90
26952;DHT22;14507;52.418;13.398;2023-04-03T02:13:10;1.70;99.90
26952;DHT22;14507;52.418;13.398;2023-04-03T02:15:38;1.80;99.90
26952;DHT22;14507;52.418;13.398;2023-04-03T02:18:04;1.80;99.90
26952;DHT22;14507;52.418;13.398;2023-04-03T02:20:29;1.70;99.90
26952;DHT22;14507;52.418;13.398;2023-04-03T02:22:55;1.70;99.90
26952;DHT22;14507;52.418;13.398;2023-04-03T02:25:21;1.70;99.90
26952;DHT22;14507;52.418;13.398;2023-04-03T02:27:47;1.70;99.90
26952;DHT22;14507;52.418;13.398;2023-04-03T02:30:12;1.70;99.90
26952;DHT22;14507;52.418;13.398;2023-04-03T02:32:40;1.70;99.90
26952;DHT22;14507;52.418;13.398;2023-04-03T02:35:06;1.60;99.90
26952;DHT22;14507;52.418;13.398;2023-04-03T02:37:32;1.70;99.90
26952;DHT22;14507;52.418;13.398;2023-04-03T02:39:57;1.60;99.90
26952;DHT22;14507;52.418;13.398;2023-04-03T02:42:23;1.70;99.90
26952;DHT22;14507;52.418;13.398;2023-04-03T02:44:49;1.70;99.90
26952;DHT22;14507;52.418;13.398;2023-04-03T02:47:14;1.70;99.90
26952;DHT22;14507;52.418;13.398;2023-04-03T02:49:41;1.70;99.90
26952;DHT22;14507;52.418;13.398;2023-04-03T02:52:09;1.70;99.90
26952;DHT22;14507;52.418;13.398;2023-04-03T02:54:34;1.70;99.90
26952;DHT22;14507;52.418;13.398;2023-04-03T02:57:00;1.70;99.90
26952;DHT22;14507;52.418;13.398;2023-04-03T02:59:26;1.60;99.90
26952;DHT22;14507;52.418;13.398;2023-04-03T03:01:52;1.60;99.90
26952;DHT22;14507;52.418;13.398;2023-04-03T03:04:17;1.60;99.90
26952;DHT22;14507;52.418;13.398;2023-04-03T03:06:43;1.60;99.90
26952;DHT22;14507;52.418;13.398;2023-04-03T03:09:08;1.60;99.90
26952;DHT22;14507;52.418;13.398;2023-04-03T03:11:34;1.60;99.90
26952;DHT22;14507;52.418;13.398;2023-04-03T03:14:00;1.60;99.90
26952;DHT22;14507;52.418;13.398;2023-04-03T03:16:25;1.60;99.90
26952;DHT22;14507;52.418;13.398;2023-04-03T03:18:51;1.50;99.90
26952;DHT22;14507;52.418;13.398;2023-04-03T03:21:17;1.50;99.90
26952;DHT22;14507;52.418;13.398;2023-04-03T03:23:42;1.50;99.90
26952;DHT22;14507;52.418;13.398;2023-04-03T03:26:10;1.40;99.90
26952;DHT22;14507;52.418;13.398;2023-04-03T03:28:37;1.40;99.90
26952;DHT22;14507;52.418;13.398;2023-04-03T03:31:04;1.40;99.90
26952;DHT22;14507;52.418;13.398;2023-04-03T03:33:31;1.40;99.90
26952;DHT22;14507;52.418;13.398;2023-04-03T03:35:57;1.40;99.90
26952;DHT22;14507;52.418;13.398;2023-04-03T03:38:22;1.40;99.90
26952;DHT22;14507;52.418;13.398;2023-04-03T03:40:49;1.40;99.90
26952;DHT22;14507;52.418;13.398;2023-04-03T03:43:16;1.30;99.90
26952;DHT22;14507;52.418;13.398;2023-04-03T03:45:42;1.30;99.90
26952;DHT22;14507;52.418;13.398;2023-04-03T03:48:08;1.40;99.90
26952;DHT22;14507;52.418;13.398;2023-04-03T03:50:33;1.30;99.90
26952;DHT22;14507;52.418;13.398;2023-04-03T03:53:00;1.30;99.90
26952;DHT22;14507;52.418;13.398;2023-04-03T03:55:26;1.30;99.90
26952;DHT22;14507;52.418;13.398;2023-04-03T03:57:51;1.20;99.90
26952;DHT22;14507;52.418;13.398;2023-04-03T04:00:17;1.20;99.90
26952;DHT22;14507;52.418;13.398;2023-04-03T04:02:43;1.20;99.90
26952;DHT22;14507;52.418;13.398;2023-04-03T04:05:09;1.20;99.90
26952;DHT22;14507;52.418;13.398;2023-04-03T04:07:35;1.20;99.90
26952;DHT22;14507;52.418;13.398;2023-04-03T04:10:00;1.20;99.90
26952;DHT22;14507;52.418;13.398;2023-04-03T04:12:26;1.10;99.90
26952;DHT22;14507;52.418;13.398;2023-04-03T04:14:52;1.10;99.90
26952;DHT22;14507;52.418;13.398;2023-04-03T04:17:17;1.20;99.90
26952;DHT22;14507;52.418;13.398;2023-04-03T04:19:43;1.10;99.90
26952;DHT22;14507;52.418;13.398;2023-04-03T04:22:08;1.10;99.90
26952;DHT22;14507;52.418;13.398;2023-04-03T04:24:34;1.10;99.90
26952;DHT22;14507;52.418;13.398;2023-04-03T04:27:00;1.10;99.90
26952;DHT22;14507;52.418;13.398;2023-04-03T04:29:25;1.20;99.90
26952;DHT22;14507;52.418;13.398;2023-04-03T04:31:51;1.00;99.90
26952;DHT22;14507;52.418;13.398;2023-04-03T04:34:17;1.00;99.90
26952;DHT22;14507;52.418;13.398;2023-04-03T04:36:42;0.90;99.90
26952;DHT22;14507;52.418;13.398;2023-04-03T04:39:08;1.10;99.90
26952;DHT22;14507;52.418;13.398;2023-04-03T04:41:34;1.00;99.90
26952;DHT22;14507;52.418;13.398;2023-04-03T04:43:59;1.10;99.90
26952;DHT22;14507;52.418;13.398;2023-04-03T04:46:25;1.00;99.90
26952;DHT22;14507;52.418;13.398;2023-04-03T04:48:51;1.00;99.90
26952;DHT22;14507;52.418;13.398;2023-04-03T04:51:17;1.10;99.90
26952;DHT22;14507;52.418;13.398;2023-04-03T04:53:43;1.10;99.90
26952;DHT22;14507;52.418;13.398;2023-04-03T04:56:09;1.10;99.90
26952;DHT22;14507;52.418;13.398;2023-04-03T04:58:35;1.00;99.90
26952;DHT22;14507;52.418;13.398;2023-04-03T05:01:03;1.10;99.90
26952;DHT22;14507;52.418;13.398;2023-04-03T05:03:29;1.10;99.90
26952;DHT22;14507;52.418;13.398;2023-04-03T05:05:55;1.10;99.90
26952;DHT22;14507;52.418;13.398;2023-04-03T05:08:21;1.10;99.90
26952;DHT22;14507;52.418;13.398;2023-04-03T05:10:47;1.10;99.90
26952;DHT22;14507;52.418;13.398;2023-04-03T05:13:13;1.10;99.90
26952;DHT22;14507;52.418;13.398;2023-04-03T05:15:39;1.10;99.90
26952;DHT22;14507;52.418;13.398;2023-04-03T05:18:04;1.20;99.90
26952;DHT22;14507;52.418;13.398;2023-04-03T05:20:31;1.20;99.90
26952;DHT22;14507;52.418;13.398;2023-04-03T05:22:56;1.30;99.90
26952;DHT22;14507;52.418;13.398;2023-04-03T05:25:23;1.50;99.90
26952;DHT22;14507;52.418;13.398;2023-04-03T05:27:48;1.70;99.90
26952;DHT22;14507;52.418;13.398;2023-04-03T05:30:14;1.80;99.90
26952;DHT22;14507;52.418;13.398;2023-04-03T05:32:40;2.00;99.90
26952;DHT22;14507;52.418;13.398;2023-04-03T05:35:07;2.30;99.90
26952;DHT22;14507;52.418;13.398;2023-04-03T05:37:33;2.60;99.90
26952;DHT22;14507;52.418;13.398;2023-04-03T05:39:59;3.00;99.90
26952;DHT22;14507;52.418;13.398;2023-04-03T05:42:25;3.60;99.90
26952;DHT22;14507;52.418;13.398;2023-04-03T05:44:50;4.20;99.90
26952;DHT22;14507;52.418;13.398;2023-04-03T05:47:17;5.00;99.90
26952;DHT22;14507;52.418;13.398;2023-04-03T05:49:43;5.80;99.90
26952;DHT22;14507;52.418;13.398;2023-04-03T05:52:21;6.40;99.30
26952;DHT22;14507;52.418;13.398;2023-04-03T05:54:47;7.10;98.00
26952;DHT22;14507;52.418;13.398;2023-04-03T05:57:14;7.70;96.30
26952;DHT22;14507;52.418;13.398;2023-04-03T05:59:42;8.30;95.30
26952;DHT22;14507;52.418;13.398;2023-04-03T06:02:14;8.60;94.30
26952;DHT22;14507;52.418;13.398;2023-04-03T06:04:40;9.00;93.00
26952;DHT22;14507;52.418;13.398;2023-04-03T06:07:06;9.30;92.20
26952;DHT22;14507;52.418;13.398;2023-04-03T06:09:33;9.70;91.60
26952;DHT22;14507;52.418;13.398;2023-04-03T06:11:59;10.10;90.40
26952;DHT22;14507;52.418;13.398;2023-04-03T06:14:25;10.50;89.10
26952;DHT22;14507;52.418;13.398;2023-04-03T06:16:52;10.80;86.50
26952;DHT22;14507;52.418;13.398;2023-04-03T06:19:17;11.00;85.40
26952;DHT22;14507;52.418;13.398;2023-04-03T06:21:43;11.20;84.10
26952;DHT22;14507;52.418;13.398;2023-04-03T06:24:10;11.40;82.50
26952;DHT22;14507;52.418;13.398;2023-04-03T06:26:37;11.60;81.50
26952;DHT22;14507;52.418;13.398;2023-04-03T06:29:03;11.80;80.60
26952;DHT22;14507;52.418;13.398;2023-04-03T06:31:29;12.00;78.40
26952;DHT22;14507;52.418;13.398;2023-04-03T06:33:55;12.10;76.90
26952;DHT22;14507;52.418;13.398;2023-04-03T06:36:21;12.10;76.10
26952;DHT22;14507;52.418;13.398;2023-04-03T06:38:47;12.10;75.10
26952;DHT22;14507;52.418;13.398;2023-04-03T06:41:13;12.00;75.50
26952;DHT22;14507;52.418;13.398;2023-04-03T06:43:38;12.00;75.10
26952;DHT22;14507;52.418;13.398;2023-04-03T06:46:05;11.90;74.90
26952;DHT22;14507;52.418;13.398;2023-04-03T06:48:30;12.20;75.20
26952;DHT22;14507;52.418;13.398;2023-04-03T06:50:56;12.60;72.80
26952;DHT22;14507;52.418;13.398;2023-04-03T06:53:22;12.70;70.50
26952;DHT22;14507;52.418;13.398;2023-04-03T06:55:48;12.60;70.30
26952;DHT22;14507;52.418;13.398;2023-04-03T06:58:13;12.80;68.70
26952;DHT22;14507;52.418;13.398;2023-04-03T07:00:41;13.00;68.20
26952;DHT22;14507;52.418;13.398;2023-04-03T07:03:06;13.40;67.30
26952;DHT22;14507;52.418;13.398;2023-04-03T07:05:32;13.90;66.40
26952;DHT22;14507;52.418;13.398;2023-04-03T07:07:58;14.00;63.90
26952;DHT22;14507;52.418;13.398;2023-04-03T07:10:23;13.90;63.40
26952;DHT22;14507;52.418;13.398;2023-04-03T07:12:49;13.90;63.20
26952;DHT22;14507;52.418;13.398;2023-04-03T07:15:15;14.00;63.10
26952;DHT22;14507;52.418;13.398;2023-04-03T07:17:41;14.10;63.10
26952;DHT22;14507;52.418;13.398;2023-04-03T07:20:07;14.10;61.80
26952;DHT22;14507;52.418;13.398;2023-04-03T07:22:33;14.20;61.40
26952;DHT22;14507;52.418;13.398;2023-04-03T07:24:59;14.60;60.70
26952;DHT22;14507;52.418;13.398;2023-04-03T07:27:25;14.50;59.80
26952;DHT22;14507;52.418;13.398;2023-04-03T07:29:51;14.50;59.40
26952;DHT22;14507;52.418;13.398;2023-04-03T07:32:17;14.30;58.50
26952;DHT22;14507;52.418;13.398;2023-04-03T07:34:43;14.00;58.00
26952;DHT22;14507;52.418;13.398;2023-04-03T07:37:09;14.10;58.20
26952;DHT22;14507;52.418;13.398;2023-04-03T07:39:35;13.90;57.30
26952;DHT22;14507;52.418;13.398;2023-04-03T07:42:01;12.30;59.30
26952;DHT22;14507;52.418;13.398;2023-04-03T07:44:28;11.70;61.00
26952;DHT22;14507;52.418;13.398;2023-04-03T07:46:54;11.60;61.50
26952;DHT22;14507;52.418;13.398;2023-04-03T07:49:21;11.30;63.50
26952;DHT22;14507;52.418;13.398;2023-04-03T07:51:49;10.80;61.90
26952;DHT22;14507;52.418;13.398;2023-04-03T07:54:15;10.60;62.40
26952;DHT22;14507;52.418;13.398;2023-04-03T07:56:41;10.90;62.30
26952;DHT22;14507;52.418;13.398;2023-04-03T07:59:09;11.50;61.00
26952;DHT22;14507;52.418;13.398;2023-04-03T08:01:34;11.80;59.80
26952;DHT22;14507;52.418;13.398;2023-04-03T08:04:00;11.90;60.00
26952;DHT22;14507;52.418;13.398;2023-04-03T08:06:26;11.60;60.20
26952;DHT22;14507;52.418;13.398;2023-04-03T08:08:52;10.90;61.90
26952;DHT22;14507;52.418;13.398;2023-04-03T08:11:18;10.60;64.40
26952;DHT22;14507;52.418;13.398;2023-04-03T08:13:44;10.80;63.40
26952;DHT22;14507;52.418;13.398;2023-04-03T08:16:17;10.60;63.90
26952;DHT22;14507;52.418;13.398;2023-04-03T08:18:43;9.90;65.00
26952;DHT22;14507;52.418;13.398;2023-04-03T08:21:10;9.10;66.30
26952;DHT22;14507;52.418;13.398;2023-04-03T08:23:36;8.40;68.90
26952;DHT22;14507;52.418;13.398;2023-04-03T08:26:14;8.10;70.60
26952;DHT22;14507;52.418;13.398;2023-04-03T08:28:40;7.50;73.00
26952;DHT22;14507;52.418;13.398;2023-04-03T08:31:11;7.10;74.40
26952;DHT22;14507;52.418;13.398;2023-04-03T08:33:38;6.90;76.60
26952;DHT22;14507;52.418;13.398;2023-04-03T08:36:05;7.10;77.20
26952;DHT22;14507;52.418;13.398;2023-04-03T08:38:32;7.50;74.10
26952;DHT22;14507;52.418;13.398;2023-04-03T08:41:13;7.60;73.30
26952;DHT22;14507;52.418;13.398;2023-04-03T08:49:02;9.40;67.90
26952;DHT22;14507;52.418;13.398;2023-04-03T08:51:28;9.60;66.90
26952;DHT22;14507;52.418;13.398;2023-04-03T08:54:04;9.90;79.10
26952;DHT22;14507;52.418;13.398;2023-04-03T08:56:33;11.00;63.60
26952;DHT22;14507;52.418;13.398;2023-04-03T08:59:04;11.30;63.90
26952;DHT22;14507;52.418;13.398;2023-04-03T09:01:37;11.20;63.10
26952;DHT22;14507;52.418;13.398;2023-04-03T09:04:11;10.90;62.00
26952;DHT22;14507;52.418;13.398;2023-04-03T09:06:38;10.30;61.80
26952;DHT22;14507;52.418;13.398;2023-04-03T09:12:05;9.80;64.80
26952;DHT22;14507;52.418;13.398;2023-04-03T09:14:43;10.40;64.00
26952;DHT22;14507;52.418;13.398;2023-04-03T09:17:21;11.30;62.80
26952;DHT22;14507;52.418;13.398;2023-04-03T09:20:14;11.50;61.40
26952;DHT22;14507;52.418;13.398;2023-04-03T09:22:43;12.20;60.10
26952;DHT22;14507;52.418;13.398;2023-04-03T09:25:42;12.50;59.20
26952;DHT22;14507;52.418;13.398;2023-04-03T09:28:09;12.00;59.30
26952;DHT22;14507;52.418;13.398;2023-04-03T09:30:36;11.60;60.20
26952;DHT22;14507;52.418;13.398;2023-04-03T09:33:03;11.10;61.70
26952;DHT22;14507;52.418;13.398;2023-04-03T09:35:31;11.90;60.30
26952;DHT22;14507;52.418;13.398;2023-04-03T09:38:00;12.30;56.40
26952;DHT22;14507;52.418;13.398;2023-04-03T09:43:08;13.00;56.60
26952;DHT22;14507;52.418;13.398;2023-04-03T09:45:46;12.80;56.40
26952;DHT22;14507;52.418;13.398;2023-04-03T09:56:04;10.60;58.80
26952;DHT22;14507;52.418;13.398;2023-04-03T09:58:49;10.30;59.80
26952;DHT22;14507;52.418;13.398;2023-04-03T10:01:25;10.20;59.70
26952;DHT22;14507;52.418;13.398;2023-04-03T10:06:42;9.70;65.20
26952;DHT22;14507;52.418;13.398;2023-04-03T10:12:11;8.30;67.90
26952;DHT22;14507;52.418;13.398;2023-04-03T10:14:55;7.90;69.00
26952;DHT22;14507;52.418;13.398;2023-04-03T10:20:18;7.60;71.00
26952;DHT22;14507;52.418;13.398;2023-04-03T10:23:24;7.20;72.00
26952;DHT22;14507;52.418;13.398;2023-04-03T10:31:35;6.80;73.10
26952;DHT22;14507;52.418;13.398;2023-04-03T10:50:06;6.60;74.80
26952;DHT22;14507;52.418;13.398;2023-04-03T10:52:54;6.60;74.00
26952;DHT22;14507;52.418;13.398;2023-04-03T10:57:57;6.70;74.00
26952;DHT22;14507;52.418;13.398;2023-04-03T11:00:57;6.80;75.30
26952;DHT22;14507;52.418;13.398;2023-04-03T11:05:53;7.00;76.30
26952;DHT22;14507;52.418;13.398;2023-04-03T11:08:44;6.90;77.10
26952;DHT22;14507;52.418;13.398;2023-04-03T11:11:24;6.70;77.70
26952;DHT22;14507;52.418;13.398;2023-04-03T11:14:11;6.70;79.10
26952;DHT22;14507;52.418;13.398;2023-04-03T11:16:45;6.70;76.10
26952;DHT22;14507;52.418;13.398;2023-04-03T11:19:33;6.80;76.00
26952;DHT22;14507;52.418;13.398;2023-04-03T11:22:24;6.80;74.80
26952;DHT22;14507;52.418;13.398;2023-04-03T11:27:55;7.00;75.60
26952;DHT22;14507;52.418;13.398;2023-04-03T11:35:31;6.90;77.00
26952;DHT22;14507;52.418;13.398;2023-04-03T11:37:57;6.90;77.70
26952;DHT22;14507;52.418;13.398;2023-04-03T11:40:33;7.00;77.40
26952;DHT22;14507;52.418;13.398;2023-04-03T11:45:29;7.20;77.20
26952;DHT22;14507;52.418;13.398;2023-04-03T11:48:02;7.30;76.80
26952;DHT22;14507;52.418;13.398;2023-04-03T11:50:41;7.30;76.20
26952;DHT22;14507;52.418;13.398;2023-04-03T12:16:20;7.50;77.60
26952;DHT22;14507;52.418;13.398;2023-04-03T12:35:48;7.40;76.00
26952;DHT22;14507;52.418;13.398;2023-04-03T12:41:27;7.40;76.20
26952;DHT22;14507;52.418;13.398;2023-04-03T12:44:08;7.40;76.30
26952;DHT22;14507;52.418;13.398;2023-04-03T12:46:43;7.50;75.10
26952;DHT22;14507;52.418;13.398;2023-04-03T12:51:54;7.50;73.00
26952;DHT22;14507;52.418;13.398;2023-04-03T12:54:33;7.30;74.50
26952;DHT22;14507;52.418;13.398;2023-04-03T12:57:33;7.30;75.50
26952;DHT22;14507;52.418;13.398;2023-04-03T12:59:59;7.30;75.50
26952;DHT22;14507;52.418;13.398;2023-04-03T13:02:30;7.20;75.80
26952;DHT22;14507;52.418;13.398;2023-04-03T13:04:58;7.30;75.60
26952;DHT22;14507;52.418;13.398;2023-04-03T13:07:36;7.30;73.80
26952;DHT22;14507;52.418;13.398;2023-04-03T13:12:55;7.20;75.50
26952;DHT22;14507;52.418;13.398;2023-04-03T13:15:29;7.20;76.20
26952;DHT22;14507;52.418;13.398;2023-04-03T13:17:55;7.10;75.80
26952;DHT22;14507;52.418;13.398;2023-04-03T13:20:34;7.20;75.60
26952;DHT22;14507;52.418;13.398;2023-04-03T13:23:07;7.20;73.10
26952;DHT22;14507;52.418;13.398;2023-04-03T13:25:40;7.20;75.60
26952;DHT22;14507;52.418;13.398;2023-04-03T13:28:07;7.20;74.40
26952;DHT22;14507;52.418;13.398;2023-04-03T13:30:37;7.20;74.90
26952;DHT22;14507;52.418;13.398;2023-04-03T13:33:06;7.20;75.50
26952;DHT22;14507;52.418;13.398;2023-04-03T13:35:38;7.20;76.30
26952;DHT22;14507;52.418;13.398;2023-04-03T13:40:55;7.00;77.60
26952;DHT22;14507;52.418;13.398;2023-04-03T13:43:28;7.00;77.10
26952;DHT22;14507;52.418;13.398;2023-04-03T13:46:22;7.00;76.70
26952;DHT22;14507;52.418;13.398;2023-04-03T13:48:51;7.10;77.40
26952;DHT22;14507;52.418;13.398;2023-04-03T13:51:26;7.10;77.30
26952;DHT22;14507;52.418;13.398;2023-04-03T13:54:10;7.10;77.40
26952;DHT22;14507;52.418;13.398;2023-04-03T13:56:40;7.10;77.50
26952;DHT22;14507;52.418;13.398;2023-04-03T14:01:48;6.90;78.30
26952;DHT22;14507;52.418;13.398;2023-04-03T14:04:21;6.60;85.90
26952;DHT22;14507;52.418;13.398;2023-04-03T14:06:47;6.70;80.00
26952;DHT22;14507;52.418;13.398;2023-04-03T14:09:15;6.70;82.70
26952;DHT22;14507;52.418;13.398;2023-04-03T14:11:42;6.60;80.60
26952;DHT22;14507;52.418;13.398;2023-04-03T14:14:26;6.60;79.90
26952;DHT22;14507;52.418;13.398;2023-04-03T14:16:58;6.60;79.70
26952;DHT22;14507;52.418;13.398;2023-04-03T14:19:35;6.60;79.90
26952;DHT22;14507;52.418;13.398;2023-04-03T14:22:13;6.70;80.20
26952;DHT22;14507;52.418;13.398;2023-04-03T14:24:39;6.70;80.60
26952;DHT22;14507;52.418;13.398;2023-04-03T14:27:22;6.70;81.00
26952;DHT22;14507;52.418;13.398;2023-04-03T14:29:48;6.70;80.50
26952;DHT22;14507;52.418;13.398;2023-04-03T14:32:20;6.70;79.50
26952;DHT22;14507;52.418;13.398;2023-04-03T14:34:47;6.70;80.20
26952;DHT22;14507;52.418;13.398;2023-04-03T14:37:16;6.90;80.10
26952;DHT22;14507;52.418;13.398;2023-04-03T14:39:43;6.90;80.20
26952;DHT22;14507;52.418;13.398;2023-04-03T14:42:15;7.00;80.40
26952;DHT22;14507;52.418;13.398;2023-04-03T14:44:41;7.00;80.10
26952;DHT22;14507;52.418;13.398;2023-04-03T14:47:13;6.90;80.00
26952;DHT22;14507;52.418;13.398;2023-04-03T14:49:39;7.00;76.60
26952;DHT22;14507;52.418;13.398;2023-04-03T14:52:05;7.10;77.30
26952;DHT22;14507;52.418;13.398;2023-04-03T14:54:31;7.20;77.90
26952;DHT22;14507;52.418;13.398;2023-04-03T14:56:59;7.30;79.10
26952;DHT22;14507;52.418;13.398;2023-04-03T14:59:25;7.40;78.70
26952;DHT22;14507;52.418;13.398;2023-04-03T15:01:51;7.40;77.80
26952;DHT22;14507;52.418;13.398;2023-04-03T15:04:19;7.30;77.50
26952;DHT22;14507;52.418;13.398;2023-04-03T15:06:47;7.20;78.50
26952;DHT22;14507;52.418;13.398;2023-04-03T15:09:24;7.10;79.30
26952;DHT22;14507;52.418;13.398;2023-04-03T15:11:52;7.00;80.10
26952;DHT22;14507;52.418;13.398;2023-04-03T15:14:18;6.90;81.60
26952;DHT22;14507;52.418;13.398;2023-04-03T15:16:44;6.90;82.70
26952;DHT22;14507;52.418;13.398;2023-04-03T15:19:10;6.80;84.10
26952;DHT22;14507;52.418;13.398;2023-04-03T15:21:36;6.80;83.60
26952;DHT22;14507;52.418;13.398;2023-04-03T15:24:02;6.70;84.70
26952;DHT22;14507;52.418;13.398;2023-04-03T15:26:29;6.60;85.10
26952;DHT22;14507;52.418;13.398;2023-04-03T15:28:54;6.60;85.70
26952;DHT22;14507;52.418;13.398;2023-04-03T15:31:20;6.50;87.20
26952;DHT22;14507;52.418;13.398;2023-04-03T15:33:46;6.30;87.80
26952;DHT22;14507;52.418;13.398;2023-04-03T15:36:11;6.30;88.50
26952;DHT22;14507;52.418;13.398;2023-04-03T15:38:37;6.30;88.20
26952;DHT22;14507;52.418;13.398;2023-04-03T15:41:04;6.20;88.80
26952;DHT22;14507;52.418;13.398;2023-04-03T15:43:30;6.20;90.00
26952;DHT22;14507;52.418;13.398;2023-04-03T15:45:57;6.00;90.20
26952;DHT22;14507;52.418;13.398;2023-04-03T15:48:24;6.00;90.50
26952;DHT22;14507;52.418;13.398;2023-04-03T15:50:49;5.90;90.90
26952;DHT22;14507;52.418;13.398;2023-04-03T15:53:15;6.00;91.20
26952;DHT22;14507;52.418;13.398;2023-04-03T15:55:40;5.90;91.60
26952;DHT22;14507;52.418;13.398;2023-04-03T15:58:06;5.90;91.70
26952;DHT22;14507;52.418;13.398;2023-04-03T16:00:32;6.00;91.80
26952;DHT22;14507;52.418;13.398;2023-04-03T16:03:05;5.80;91.70
26952;DHT22;14507;52.418;13.398;2023-04-03T16:05:32;5.90;92.00
26952;DHT22;14507;52.418;13.398;2023-04-03T16:07:59;5.90;92.40
26952;DHT22;14507;52.418;13.398;2023-04-03T16:10:25;6.00;92.20
26952;DHT22;14507;52.418;13.398;2023-04-03T16:12:51;6.00;91.90
26952;DHT22;14507;52.418;13.398;2023-04-03T16:15:17;6.00;91.70
26952;DHT22;14507;52.418;13.398;2023-04-03T16:17:43;6.00;91.30
26952;DHT22;14507;52.418;13.398;2023-04-03T16:20:10;5.90;91.20
26952;DHT22;14507;52.418;13.398;2023-04-03T16:22:36;5.90;91.40
26952;DHT22;14507;52.418;13.398;2023-04-03T16:25:04;5.80;91.40
26952;DHT22;14507;52.418;13.398;2023-04-03T16:27:29;5.80;91.70
26952;DHT22;14507;52.418;13.398;2023-04-03T16:29:57;5.80;92.00
26952;DHT22;14507;52.418;13.398;2023-04-03T16:32:23;5.80;92.10
26952;DHT22;14507;52.418;13.398;2023-04-03T16:34:50;5.90;95.30
26952;DHT22;14507;52.418;13.398;2023-04-03T16:37:16;6.00;92.90
26952;DHT22;14507;52.418;13.398;2023-04-03T16:39:42;6.10;92.60
26952;DHT22;14507;52.418;13.398;2023-04-03T16:42:08;6.20;91.90
26952;DHT22;14507;52.418;13.398;2023-04-03T16:44:35;6.20;91.20
26952;DHT22;14507;52.418;13.398;2023-04-03T16:47:01;6.20;90.60
26952;DHT22;14507;52.418;13.398;2023-04-03T16:49:26;6.20;90.10
26952;DHT22;14507;52.418;13.398;2023-04-03T16:51:57;6.10;90.10
26952;DHT22;14507;52.418;13.398;2023-04-03T16:54:23;6.00;90.20
26952;DHT22;14507;52.418;13.398;2023-04-03T16:56:49;6.00;90.60
26952;DHT22;14507;52.418;13.398;2023-04-03T16:59:15;5.90;90.90
26952;DHT22;14507;52.418;13.398;2023-04-03T17:01:40;5.90;91.20
26952;DHT22;14507;52.418;13.398;2023-04-03T17:04:06;5.90;91.70
26952;DHT22;14507;52.418;13.398;2023-04-03T17:06:32;5.70;92.00
26952;DHT22;14507;52.418;13.398;2023-04-03T17:08:57;5.80;92.60
26952;DHT22;14507;52.418;13.398;2023-04-03T17:11:23;5.80;92.60
26952;DHT22;14507;52.418;13.398;2023-04-03T17:13:49;5.80;92.70
26952;DHT22;14507;52.418;13.398;2023-04-03T17:16:15;5.70;93.10
26952;DHT22;14507;52.418;13.398;2023-04-03T17:18:41;5.70;93.50
26952;DHT22;14507;52.418;13.398;2023-04-03T17:21:07;5.60;93.30
26952;DHT22;14507;52.418;13.398;2023-04-03T17:23:34;5.60;93.60
26952;DHT22;14507;52.418;13.398;2023-04-03T17:26:02;5.60;93.90
26952;DHT22;14507;52.418;13.398;2023-04-03T17:28:28;5.50;94.10
26952;DHT22;14507;52.418;13.398;2023-04-03T17:30:55;5.40;94.10
26952;DHT22;14507;52.418;13.398;2023-04-03T17:33:21;5.40;94.10
26952;DHT22;14507;52.418;13.398;2023-04-03T17:35:47;5.30;94.20
26952;DHT22;14507;52.418;13.398;2023-04-03T17:38:12;5.30;93.80